LTFE Airport Information

Runway Information
Runway 11 Length 9842 ft width 148 ft
Elevation 9 ft Threshold 0 ft Heading 107
Runway 29 Length 9842 ft Width 148 ft
Elevation 21 ft Threshold 0 ft Heading 287
Airport Frequencies
Type APP Name MENDERES A Frequency 119.5 MHZ
Type APP Name MENDERES A Frequency 119.775 MHZ
Type ATIS Name ATIS Frequency 128.5 MHZ
Type GND Name GND Frequency 121.95 MHZ
Type TWR Name TWR Frequency 120.5 MHZ
Airport Navaids
Type VOR-DME Name Milas Bodrum Frequency 116700 KHZ
Type NDB Name Milas Bodrum Frequency 389 KHZ
Type VOR-DME Name Kiyikislacik Frequency 113900 KHZ
Airport Weather Information & NOTAM
ADDS - METARS form results

(1446 UTC 25 January 2021)
Data provider http://aviationweather.gov/metar/data/
 
METAR text: LTFE 251439Z 20010KT 8000 -SHRA FEW020CB SCT035 BKN100 17/10 Q1013 TEMPO TL1500 -TSRA
Conditions at: LTFE (BODRUM MILAS , TR) observed 1439 UTC 25 January 2021
Temperature: 17.0°C (63°F)
Dewpoint: 10.0°C (50°F) [RH = 63%]
Pressure (altimeter): 29.91 inches Hg (1013.0 mb)
Winds: from the SSW (200 degrees) at 12 MPH (10 knots; 5.1 m/s)
Visibility: 5 miles ( 8 km)
Ceiling: 10000 feet AGL
Clouds: few clouds at 2000 feet AGL
scattered clouds at 3500 feet AGL
broken clouds at 10000 feet AGL
Weather: -SHRA  (light rain showers)

METAR text: LTFE 251420Z 20012KT 170V230 9999 FEW020CB SCT035 BKN100 17/10 Q1013 RESHRA TEMPO TL1500 -TSRA
Conditions at: LTFE (BODRUM MILAS , TR) observed 1420 UTC 25 January 2021
Temperature: 17.0°C (63°F)
Dewpoint: 10.0°C (50°F) [RH = 63%]
Pressure (altimeter): 29.91 inches Hg (1013.0 mb)
Winds: from the SSW (200 degrees) at 14 MPH (12 knots; 6.2 m/s)
Visibility: 6 or more miles (10+ km)
Ceiling: 10000 feet AGL
Clouds: few clouds at 2000 feet AGL
scattered clouds at 3500 feet AGL
broken clouds at 10000 feet AGL
Weather: no significant weather observed at this time

METAR text: LTFE 251404Z 21011KT 9999 FEW020CB SCT035 BKN100 17/10 Q1013 RESHRA TEMPO TL1500 -TSRA
Conditions at: LTFE (BODRUM MILAS , TR) observed 1404 UTC 25 January 2021
Temperature: 17.0°C (63°F)
Dewpoint: 10.0°C (50°F) [RH = 63%]
Pressure (altimeter): 29.91 inches Hg (1013.0 mb)
Winds: from the SSW (210 degrees) at 13 MPH (11 knots; 5.7 m/s)
Visibility: 6 or more miles (10+ km)
Ceiling: 10000 feet AGL
Clouds: few clouds at 2000 feet AGL
scattered clouds at 3500 feet AGL
broken clouds at 10000 feet AGL
Weather: no significant weather observed at this time

METAR text: LTFE 251350Z 21009KT 170V230 9000 -SHRA FEW020CB SCT035 BKN100 17/11 Q1012 TEMPO TL1500 -TSRA
Conditions at: LTFE (BODRUM MILAS , TR) observed 1350 UTC 25 January 2021
Temperature: 17.0°C (63°F)
Dewpoint: 11.0°C (52°F) [RH = 68%]
Pressure (altimeter): 29.88 inches Hg (1012.0 mb)
Winds: from the SSW (210 degrees) at 10 MPH (9 knots; 4.6 m/s)
Visibility: 6 miles ( 9 km)
Ceiling: 10000 feet AGL
Clouds: few clouds at 2000 feet AGL
scattered clouds at 3500 feet AGL
broken clouds at 10000 feet AGL
Weather: -SHRA  (light rain showers)

Forecast for: LTFE (BODRUM MILAS , TR)
Text: TAF LTFE 251040Z 2512/2612 21012KT 9999 SCT030 BKN090
Forecast period: 1200 UTC 25 January 2021 to 1200 UTC 26 January 2021
Forecast type: FROM: standard forecast or significant change
Winds: from the SSW (210 degrees) at 14 MPH (12 knots; 6.2 m/s)
Visibility: 6 or more miles (10+ km)
Ceiling: 9000 feet AGL
Clouds: scattered clouds at 3000 feet AGL
broken clouds at 9000 feet AGL
Weather: no significant weather forecast for this period
Text: TEMPO 2512/2515 -TSRA FEW020CB BKN030
Forecast period: 1200 to 1500 UTC 25 January 2021
Forecast type: TEMPORARY: The following changes expected for less than half the time period
Visibility: missing
Ceiling: 3000 feet AGL
Clouds: few clouds at 2000 feet AGL
broken clouds at 3000 feet AGL
Weather: -TSRA  (light rain associated with thunderstorm(s))
Text: BECMG 2512/2515 VRB02KT
Forecast period: 1200 UTC 25 January 2021 to 0600 UTC 26 January 2021
Forecast type: BECOMING: Conditions expected to become as follows by 1500 UTC 25 January 2021
Winds: variable direction winds at 2 MPH (2 knots; 1.0 m/s)
Visibility: 6 or more miles (10+ km)
Ceiling: 9000 feet AGL
Clouds: scattered clouds at 3000 feet AGL
broken clouds at 9000 feet AGL
Weather: no significant weather forecast for this period
Text: PROB30
Forecast period: 0000 to 0400 UTC 26 January 2021
Forecast type: TEMPORARY: The following changes expected for less than half the time period
Visibility: missing
Ceiling: 3000 feet AGL
Clouds: few clouds at 2000 feet AGL
broken clouds at 3000 feet AGL
Weather: -TSRA  (light rain associated with thunderstorm(s))
Text: TEMPO 2600/2604 -TSRA FEW020CB BKN030
Forecast period: 0600 to 1200 UTC 26 January 2021
Forecast type: BECOMING: Conditions expected to become as follows by 1000 UTC 26 January 2021
Winds: from the SSE (160 degrees) at 16 MPH (14 knots; 7.2 m/s)
gusting to 29 MPH (25 knots; 12.9 m/s)
Visibility: 6 or more miles (10+ km)
Ceiling: 9000 feet AGL
Clouds: scattered clouds at 3000 feet AGL
broken clouds at 9000 feet AGL
Weather: no significant weather forecast for this period